Temp: 9.3°C   Baro: 1005.8mb
  Wind: 6.0mph   Dir: SSW (206°)
  Rain: 0.2mm (0.0mm/hr)
  Sun: 0W/m2  Humidity: 93%

Historic data

Bath Spa Weather Station Historical Data
Daily Summary for October 14, 2022 Units:  Both    English   Metric
Daily Weekly Monthly Yearly Custom
  High: Low: Average:
Temperature: 60.2 °F /  15.7 °C 48.9 °F /  9.4 °C 53.7 °F /  12.1 °C
Dew Point: 55.3 °F /  12.9 °C 46.9 °F /  8.3 °C 50.9 °F /  10.5 °C
Humidity: 94% 79% 90%
Wind Speed: 8mph /  12.9km/h - 1.5mph /  2.4km/h
Wind Gust: 12mph /  19.3km/h - -
Wind- - WSW
Pressure: 29.98 in /  1015.1 hPa 29.72 in /  1006.3 hPa -
Precipitation: 0.01 in /  0.25 mm    
Historical Graphs
 
 
Tabular Data for October 14, 2022
Time Temperature Dew Point Pressure Wind Wind Speed Wind Gust Humidity Rainfall Rate (Hourly) solar
00:09 50.7 °F /  10.4 °C 48.6 °F /  9.2 °C 29.98in /  1015.1hPa SW 0.2mph /  0.3km/h 1mph /  1.6km/h 92% 0.00in /  0mm 0 W/m2
00:14 50.5 °F /  10.3 °C 48.4 °F /  9.1 °C 29.98in /  1015.1hPa SW 0.2mph /  0.3km/h 1mph /  1.6km/h 92% 0.00in /  0mm 0 W/m2
00:19 50.5 °F /  10.3 °C 48.4 °F /  9.1 °C 29.98in /  1015.1hPa Calm   2mph /  3.2km/h 92% 0.00in /  0mm 0 W/m2
00:24 50.5 °F /  10.3 °C 48.4 °F /  9.1 °C 29.98in /  1015.1hPa Calm     92% 0.00in /  0mm 0 W/m2
00:29 50.6 °F /  10.3 °C 48.5 °F /  9.2 °C 29.97in /  1014.8hPa SW 0.4mph /  0.6km/h 1mph /  1.6km/h 92% 0.00in /  0mm 0 W/m2
00:34 50.5 °F /  10.3 °C 48.4 °F /  9.1 °C 29.97in /  1014.8hPa SW 0.4mph /  0.6km/h 2mph /  3.2km/h 92% 0.00in /  0mm 0 W/m2
00:39 50.7 °F /  10.4 °C 48.6 °F /  9.2 °C 29.97in /  1014.8hPa SW 0.8mph /  1.3km/h 2mph /  3.2km/h 92% 0.00in /  0mm 0 W/m2
00:44 50.6 °F /  10.3 °C 48.5 °F /  9.2 °C 29.96in /  1014.4hPa SW 0.5mph /  0.8km/h 2mph /  3.2km/h 92% 0.00in /  0mm 0 W/m2
00:49 50.5 °F /  10.3 °C 48.4 °F /  9.1 °C 29.96in /  1014.4hPa Calm     92% 0.00in /  0mm 0 W/m2
00:54 50.5 °F /  10.3 °C 48.4 °F /  9.1 °C 29.96in /  1014.4hPa Calm     92% 0.00in /  0mm 0 W/m2
00:59 50.5 °F /  10.3 °C 48.4 °F /  9.1 °C 29.95in /  1014.1hPa Calm     92% 0.00in /  0mm 0 W/m2
01:04 50.5 °F /  10.3 °C 48.4 °F /  9.1 °C 29.95in /  1014.1hPa Calm     92% 0.00in /  0mm 0 W/m2
01:09 50.5 °F /  10.3 °C 48.4 °F /  9.1 °C 29.95in /  1014.1hPa Calm     92% 0.00in /  0mm 0 W/m2
01:14 50.5 °F /  10.3 °C 48.4 °F /  9.1 °C 29.95in /  1014.1hPa Calm     92.2% 0.00in /  0mm 0 W/m2
01:19 50.5 °F /  10.3 °C 48.6 °F /  9.2 °C 29.95in /  1014.1hPa Calm     92.8% 0.00in /  0mm 0 W/m2
01:24 50.5 °F /  10.3 °C 48.6 °F /  9.2 °C 29.95in /  1014.1hPa Calm     93% 0.00in /  0mm 0 W/m2
01:29 50.5 °F /  10.3 °C 48.6 °F /  9.2 °C 29.95in /  1014.1hPa Calm     93% 0.00in /  0mm 0 W/m2
01:34 50.4 °F /  10.2 °C 48.4 °F /  9.1 °C 29.95in /  1014.1hPa Calm     93% 0.00in /  0mm 0 W/m2
01:39 50.4 °F /  10.2 °C 48.4 °F /  9.1 °C 29.95in /  1014.1hPa Calm     93% 0.00in /  0mm 0 W/m2
01:44 50.5 °F /  10.3 °C 48.5 °F /  9.2 °C 29.95in /  1014.1hPa Calm     93% 0.00in /  0mm 0 W/m2
01:49 50.5 °F /  10.3 °C 48.6 °F /  9.2 °C 29.95in /  1014.1hPa Calm     93% 0.00in /  0mm 0 W/m2
01:54 50.5 °F /  10.3 °C 48.5 °F /  9.2 °C 29.94in /  1013.8hPa Calm     93% 0.00in /  0mm 0 W/m2
01:59 50.4 °F /  10.2 °C 48.4 °F /  9.1 °C 29.94in /  1013.8hPa Calm     93% 0.00in /  0mm 0 W/m2
02:04 50.4 °F /  10.2 °C 48.5 °F /  9.2 °C 29.94in /  1013.8hPa SW 0.2mph /  0.3km/h 1mph /  1.6km/h 93% 0.00in /  0mm 0 W/m2
02:09 50.4 °F /  10.2 °C 48.4 °F /  9.1 °C 29.93in /  1013.4hPa WSW 1.5mph /  2.4km/h 3mph /  4.8km/h 93% 0.00in /  0mm 0 W/m2
02:14 50.4 °F /  10.2 °C 48.4 °F /  9.1 °C 29.93in /  1013.4hPa Calm   2mph /  3.2km/h 93% 0.00in /  0mm 0 W/m2
02:19 50.4 °F /  10.2 °C 48.4 °F /  9.1 °C 29.93in /  1013.4hPa West 1.2mph /  1.9km/h 4mph /  6.4km/h 93% 0.00in /  0mm 0 W/m2
02:24 50.5 °F /  10.3 °C 48.5 °F /  9.2 °C 29.93in /  1013.4hPa WNW 0.2mph /  0.3km/h 2mph /  3.2km/h 93% 0.00in /  0mm 0 W/m2
02:29 50.6 °F /  10.3 °C 48.6 °F /  9.2 °C 29.93in /  1013.4hPa Calm   2mph /  3.2km/h 93% 0.00in /  0mm 0 W/m2
02:34 50.5 °F /  10.3 °C 48.6 °F /  9.2 °C 29.93in /  1013.4hPa WNW 0.2mph /  0.3km/h 2mph /  3.2km/h 93% 0.00in /  0mm 0 W/m2
02:39 50.5 °F /  10.3 °C 48.6 °F /  9.2 °C 29.93in /  1013.4hPa Calm     93% 0.00in /  0mm 0 W/m2
02:44 50.5 °F /  10.3 °C 48.6 °F /  9.2 °C 29.93in /  1013.4hPa WNW 0.4mph /  0.6km/h 2mph /  3.2km/h 93% 0.00in /  0mm 0 W/m2
02:49 50.5 °F /  10.3 °C 48.6 °F /  9.2 °C 29.93in /  1013.4hPa WNW 0.2mph /  0.3km/h 1mph /  1.6km/h 93% 0.00in /  0mm 0 W/m2
02:54 50.4 °F /  10.2 °C 48.4 °F /  9.1 °C 29.93in /  1013.4hPa Calm   1mph /  1.6km/h 93% 0.00in /  0mm 0 W/m2
02:59 50.4 °F /  10.2 °C 48.4 °F /  9.1 °C 29.92in /  1013.1hPa Calm   1mph /  1.6km/h 93% 0.00in /  0mm 0 W/m2
03:04 50.4 °F /  10.2 °C 48.5 °F /  9.2 °C 29.92in /  1013.1hPa Calm     93% 0.00in /  0mm 0 W/m2
03:09 50.5 °F /  10.3 °C 48.5 °F /  9.2 °C 29.92in /  1013.1hPa Calm     93% 0.00in /  0mm 0 W/m2
03:14 50.5 °F /  10.3 °C 48.6 °F /  9.2 °C 29.91in /  1012.8hPa Calm     93% 0.00in /  0mm 0 W/m2
03:19 50.5 °F /  10.3 °C 48.5 °F /  9.2 °C 29.92in /  1013.1hPa Calm     93% 0.00in /  0mm 0 W/m2
03:24 50.4 °F /  10.2 °C 48.4 °F /  9.1 °C 29.91in /  1012.8hPa Calm     93% 0.00in /  0mm 0 W/m2
03:29 50.4 °F /  10.2 °C 48.4 °F /  9.1 °C 29.91in /  1012.8hPa WNW 0.2mph /  0.3km/h 1mph /  1.6km/h 93% 0.00in /  0mm 0 W/m2
03:34 50.4 °F /  10.2 °C 48.4 °F /  9.1 °C 29.91in /  1012.8hPa WNW 1mph /  1.6km/h 2mph /  3.2km/h 93% 0.00in /  0mm 0 W/m2
03:39 50.4 °F /  10.2 °C 48.5 °F /  9.2 °C 29.92in /  1013.1hPa Calm   1mph /  1.6km/h 93.2% 0.00in /  0mm 0 W/m2
03:44 50.4 °F /  10.2 °C 48.7 °F /  9.3 °C 29.92in /  1013.1hPa Calm     94% 0.00in /  0mm 0 W/m2
03:49 50.4 °F /  10.2 °C 48.7 °F /  9.3 °C 29.91in /  1012.8hPa WNW 0.4mph /  0.6km/h 2mph /  3.2km/h 94% 0.00in /  0mm 0 W/m2
03:54 50.4 °F /  10.2 °C 48.7 °F /  9.3 °C 29.91in /  1012.8hPa Calm   1mph /  1.6km/h 94% 0.00in /  0mm 0 W/m2
03:59 50.4 °F /  10.2 °C 48.7 °F /  9.3 °C 29.91in /  1012.8hPa Calm     94% 0.00in /  0mm 0 W/m2
04:04 50.4 °F /  10.2 °C 48.7 °F /  9.3 °C 29.90in /  1012.4hPa Calm     94% 0.00in /  0mm 0 W/m2
04:09 50.4 °F /  10.2 °C 48.7 °F /  9.3 °C 29.90in /  1012.4hPa Calm     94% 0.00in /  0mm 0 W/m2
04:14 50.4 °F /  10.2 °C 48.7 °F /  9.3 °C 29.90in /  1012.4hPa Calm     94% 0.00in /  0mm 0 W/m2
04:19 50.4 °F /  10.2 °C 48.7 °F /  9.3 °C 29.90in /  1012.4hPa Calm     94% 0.00in /  0mm 0 W/m2
04:24 50.5 °F /  10.3 °C 48.9 °F /  9.4 °C 29.90in /  1012.4hPa Calm     94% 0.00in /  0mm 0 W/m2
04:29 50.5 °F /  10.3 °C 48.9 °F /  9.4 °C 29.90in /  1012.4hPa Calm     94% 0.00in /  0mm 0 W/m2
04:34 50.5 °F /  10.3 °C 48.9 °F /  9.4 °C 29.89in /  1012.1hPa Calm     94% 0.00in /  0mm 0 W/m2
04:39 50.5 °F /  10.3 °C 48.9 °F /  9.4 °C 29.89in /  1012.1hPa Calm     94% 0.00in /  0mm 0 W/m2
04:44 50.5 °F /  10.3 °C 48.9 °F /  9.4 °C 29.89in /  1012.1hPa Calm     94% 0.00in /  0mm 0 W/m2
04:49 50.9 °F /  10.5 °C 49.3 °F /  9.6 °C 29.88in /  1011.7hPa Calm     94% 0.00in /  0mm 0 W/m2
04:54 51.3 °F /  10.7 °C 49.7 °F /  9.8 °C 29.88in /  1011.7hPa Calm     94% 0.00in /  0mm 0 W/m2
04:59 51.6 °F /  10.9 °C 50 °F /  10 °C 29.88in /  1011.7hPa Calm     94% 0.00in /  0mm 0 W/m2
05:04 51.9 °F /  11.1 °C 50.3 °F /  10.2 °C 29.88in /  1011.7hPa Calm     94% 0.00in /  0mm 0 W/m2
05:09 52.2 °F /  11.2 °C 50.5 °F /  10.3 °C 29.88in /  1011.7hPa Calm     94% 0.00in /  0mm 0 W/m2
05:14 52.3 °F /  11.3 °C 50.7 °F /  10.4 °C 29.88in /  1011.7hPa Calm     94% 0.00in /  0mm 0 W/m2
05:19 52.5 °F /  11.4 °C 50.9 °F /  10.5 °C 29.88in /  1011.7hPa Calm     94% 0.00in /  0mm 0 W/m2
05:24 52.7 °F /  11.5 °C 51.1 °F /  10.6 °C 29.88in /  1011.7hPa Calm     94% 0.00in /  0mm 0 W/m2
05:29 52.8 °F /  11.6 °C 51.2 °F /  10.7 °C 29.87in /  1011.4hPa Calm     94% 0.00in /  0mm 0 W/m2
05:34 52.9 °F /  11.6 °C 51.3 °F /  10.7 °C 29.87in /  1011.4hPa Calm     94% 0.00in /  0mm 0 W/m2
05:39 53.1 °F /  11.7 °C 51.3 °F /  10.7 °C 29.87in /  1011.4hPa Calm     93.8% 0.00in /  0mm 0 W/m2
05:44 53.1 °F /  11.7 °C 51.2 °F /  10.7 °C 29.87in /  1011.4hPa Calm     93.2% 0.00in /  0mm 0 W/m2
05:49 53.1 °F /  11.7 °C 51.1 °F /  10.6 °C 29.87in /  1011.4hPa Calm     93% 0.00in /  0mm 0 W/m2
05:54 53 °F /  11.7 °C 51 °F /  10.6 °C 29.87in /  1011.4hPa Calm     93% 0.00in /  0mm 0 W/m2
05:59 52.9 °F /  11.6 °C 50.9 °F /  10.5 °C 29.87in /  1011.4hPa Calm     93% 0.00in /  0mm 0 W/m2
06:04 52.9 °F /  11.6 °C 50.9 °F /  10.5 °C 29.87in /  1011.4hPa Calm     93% 0.00in /  0mm 0 W/m2
06:09 52.9 °F /  11.6 °C 50.9 °F /  10.5 °C 29.86in /  1011.1hPa Calm     93% 0.00in /  0mm 0 W/m2
06:14 52.9 °F /  11.6 °C 50.9 °F /  10.5 °C 29.86in /  1011.1hPa Calm     93% 0.00in /  0mm 0 W/m2
06:19 52.9 °F /  11.6 °C 50.9 °F /  10.5 °C 29.86in /  1011.1hPa Calm     93% 0.00in /  0mm 0 W/m2
06:24 52.9 °F /  11.6 °C 50.9 °F /  10.5 °C 29.86in /  1011.1hPa Calm     93% 0.00in /  0mm 0 W/m2
06:29 52.9 °F /  11.6 °C 50.9 °F /  10.5 °C 29.86in /  1011.1hPa Calm     93% 0.00in /  0mm 0 W/m2
06:34 53.1 °F /  11.7 °C 51.1 °F /  10.6 °C 29.85in /  1010.7hPa Calm     93% 0.00in /  0mm 0 W/m2
06:39 53.1 °F /  11.7 °C 51.1 °F /  10.6 °C 29.85in /  1010.7hPa Calm     93% 0.00in /  0mm 0 W/m2
06:44 53.1 °F /  11.7 °C 51.1 °F /  10.6 °C 29.85in /  1010.7hPa Calm     93% 0.00in /  0mm 0 W/m2
06:49 53.2 °F /  11.8 °C 51.2 °F /  10.7 °C 29.85in /  1010.7hPa Calm     93% 0.00in /  0mm 0 W/m2
06:54 53.2 °F /  11.8 °C 51.3 °F /  10.7 °C 29.85in /  1010.7hPa Calm     93% 0.00in /  0mm 0 W/m2
06:59 53.3 °F /  11.8 °C 51.3 °F /  10.7 °C 29.85in /  1010.7hPa Calm     93% 0.00in /  0mm 0 W/m2
07:04 53.3 °F /  11.8 °C 51.3 °F /  10.7 °C 29.85in /  1010.7hPa Calm     93% 0.00in /  0mm 0 W/m2
07:09 53.2 °F /  11.8 °C 51.3 °F /  10.7 °C 29.85in /  1010.7hPa Calm     93% 0.00in /  0mm 0 W/m2
07:14 53.4 °F /  11.9 °C 51.4 °F /  10.8 °C 29.85in /  1010.7hPa Calm     93% 0.00in /  0mm 0 W/m2
07:19 53.6 °F /  12 °C 51.6 °F /  10.9 °C 29.85in /  1010.7hPa Calm     93% 0.00in /  0mm 0 W/m2
07:24 53.6 °F /  12 °C 51.6 °F /  10.9 °C 29.85in /  1010.7hPa Calm     93% 0.00in /  0mm 0 W/m2
07:29 53.8 °F /  12.1 °C 51.8 °F /  11 °C 29.85in /  1010.7hPa Calm     93% 0.00in /  0mm 0 W/m2
07:34 53.9 °F /  12.2 °C 51.9 °F /  11.1 °C 29.84in /  1010.4hPa Calm     93% 0.00in /  0mm 0 W/m2
07:39 54 °F /  12.2 °C 52 °F /  11.1 °C 29.84in /  1010.4hPa Calm     93% 0.00in /  0mm 0 W/m2
07:44 54.1 °F /  12.3 °C 52.2 °F /  11.2 °C 29.84in /  1010.4hPa Calm     93% 0.00in /  0mm 0 W/m2
07:49 54.1 °F /  12.3 °C 52.2 °F /  11.2 °C 29.84in /  1010.4hPa Calm     93% 0.00in /  0mm 5 W/m2
07:54 54.1 °F /  12.3 °C 52.2 °F /  11.2 °C 29.84in /  1010.4hPa Calm     93% 0.00in /  0mm 0 W/m2
07:59 54.2 °F /  12.3 °C 52.2 °F /  11.2 °C 29.85in /  1010.7hPa Calm     93% 0.00in /  0mm 0 W/m2
08:04 54.3 °F /  12.4 °C 52.3 °F /  11.3 °C 29.85in /  1010.7hPa Calm     93% 0.00in /  0mm 0 W/m2
08:09 54.3 °F /  12.4 °C 52.3 °F /  11.3 °C 29.85in /  1010.7hPa Calm     93% 0.00in /  0mm 5 W/m2
08:14 54.3 °F /  12.4 °C 52.3 °F /  11.3 °C 29.85in /  1010.7hPa Calm     93% 0.00in /  0mm 11 W/m2
08:19 54.5 °F /  12.5 °C 52.5 °F /  11.4 °C 29.85in /  1010.7hPa WSW 0.8mph /  1.3km/h 5mph /  8km/h 93% 0.00in /  0mm 12 W/m2
08:24 54.7 °F /  12.6 °C 52.6 °F /  11.4 °C 29.85in /  1010.7hPa SW 3.6mph /  5.8km/h 8mph /  12.9km/h 92.8% 0.00in /  0mm 16 W/m2
08:29 54.9 °F /  12.7 °C 52.5 °F /  11.4 °C 29.85in /  1010.7hPa SW 3.9mph /  6.3km/h 9mph /  14.5km/h 92% 0.00in /  0mm 21 W/m2
08:34 55 °F /  12.8 °C 52.7 °F /  11.5 °C 29.85in /  1010.7hPa WSW 2.3mph /  3.7km/h 7mph /  11.3km/h 92% 0.00in /  0mm 14 W/m2
08:39 55 °F /  12.8 °C 52.7 °F /  11.5 °C 29.85in /  1010.7hPa WSW 3mph /  4.8km/h 6mph /  9.7km/h 92% 0.00in /  0mm 25 W/m2
08:44 55 °F /  12.8 °C 52.7 °F /  11.5 °C 29.85in /  1010.7hPa WSW 0.7mph /  1.1km/h 3mph /  4.8km/h 92% 0.00in /  0mm 28 W/m2
08:49 55 °F /  12.8 °C 52.7 °F /  11.5 °C 29.85in /  1010.7hPa SW 2.4mph /  3.9km/h 5mph /  8km/h 92% 0.00in /  0mm 33 W/m2
08:54 55.2 °F /  12.9 °C 52.9 °F /  11.6 °C 29.85in /  1010.7hPa SW 3.1mph /  5km/h 5mph /  8km/h 92% 0.00in /  0mm 32 W/m2
08:58 55.2 °F /  12.9 °C 52.8 °F /  11.6 °C 29.85in /  1010.7hPa WSW 3mph /  4.8km/h 7mph /  11.3km/h 92% 0.00in /  0mm 28 W/m2
09:04 55.2 °F /  12.9 °C 52.9 °F /  11.6 °C 29.85in /  1010.7hPa WSW 2.8mph /  4.5km/h 6mph /  9.7km/h 92% 0.00in /  0mm 33 W/m2
09:09 55.2 °F /  12.9 °C 52.9 °F /  11.6 °C 29.85in /  1010.7hPa SW 2.2mph /  3.5km/h 5mph /  8km/h 92% 0.00in /  0mm 33 W/m2
09:14 55.2 °F /  12.9 °C 52.9 °F /  11.6 °C 29.85in /  1010.7hPa SW 0.8mph /  1.3km/h 3mph /  4.8km/h 92% 0.00in /  0mm 32 W/m2
09:19 55.2 °F /  12.9 °C 52.9 °F /  11.6 °C 29.85in /  1010.7hPa SW 1.3mph /  2.1km/h 3mph /  4.8km/h 92% 0.00in /  0mm 21 W/m2
09:24 55.2 °F /  12.9 °C 52.9 °F /  11.6 °C 29.85in /  1010.7hPa SW 1.7mph /  2.7km/h 4mph /  6.4km/h 92% 0.00in /  0mm 19 W/m2
09:29 55.2 °F /  12.9 °C 52.9 °F /  11.6 °C 29.85in /  1010.7hPa SW 0.6mph /  1km/h 3mph /  4.8km/h 92% 0.00in /  0mm 21 W/m2
09:34 55.2 °F /  12.9 °C 52.9 °F /  11.6 °C 29.85in /  1010.7hPa SW 1.7mph /  2.7km/h 4mph /  6.4km/h 92% 0.00in /  0mm 23 W/m2
09:39 55.2 °F /  12.9 °C 52.9 °F /  11.6 °C 29.86in /  1011.1hPa SW 0.8mph /  1.3km/h 3mph /  4.8km/h 92% 0.00in /  0mm 23 W/m2
09:44 55.2 °F /  12.9 °C 52.9 °F /  11.6 °C 29.85in /  1010.7hPa SW 0.2mph /  0.3km/h 1mph /  1.6km/h 92% 0.00in /  0mm 23 W/m2
09:49 55.2 °F /  12.9 °C 52.9 °F /  11.6 °C 29.85in /  1010.7hPa SW 1.3mph /  2.1km/h 3mph /  4.8km/h 92% 0.00in /  0mm 25 W/m2
09:54 55.2 °F /  12.9 °C 52.9 °F /  11.6 °C 29.85in /  1010.7hPa West 2.6mph /  4.2km/h 5mph /  8km/h 92% 0.00in /  0mm 28 W/m2
09:59 55 °F /  12.8 °C 52.7 °F /  11.5 °C 29.85in /  1010.7hPa West 4mph /  6.4km/h 6mph /  9.7km/h 92% 0.00in /  0mm 32 W/m2
10:04 54.9 °F /  12.7 °C 52.5 °F /  11.4 °C 29.85in /  1010.7hPa West 4.5mph /  7.2km/h 7mph /  11.3km/h 92% 0.00in /  0mm 37 W/m2
10:09 54.7 °F /  12.6 °C 52.3 °F /  11.3 °C 29.85in /  1010.7hPa West 4mph /  6.4km/h 7mph /  11.3km/h 92% 0.00in /  0mm 42 W/m2
10:14 54.6 °F /  12.6 °C 52.2 °F /  11.2 °C 29.85in /  1010.7hPa WNW 2.6mph /  4.2km/h 6mph /  9.7km/h 92% 0.00in /  0mm 53 W/m2
10:19 54.5 °F /  12.5 °C 52.2 °F /  11.2 °C 29.85in /  1010.7hPa WNW 1.9mph /  3.1km/h 5mph /  8km/h 92% 0.00in /  0mm 81 W/m2
10:24 54.6 °F /  12.6 °C 52.3 °F /  11.3 °C 29.85in /  1010.7hPa West 2.4mph /  3.9km/h 6mph /  9.7km/h 92% 0.00in /  0mm 93 W/m2
10:29 54.7 °F /  12.6 °C 52.7 °F /  11.5 °C 29.85in /  1010.7hPa West 2.9mph /  4.7km/h 6mph /  9.7km/h 93% 0.00in /  0mm 100 W/m2
10:34 54.7 °F /  12.6 °C 52.7 °F /  11.5 °C 29.85in /  1010.7hPa WNW 2.1mph /  3.4km/h 6mph /  9.7km/h 93% 0.00in /  0mm 83 W/m2
10:39 54.7 °F /  12.6 °C 52.7 °F /  11.5 °C 29.84in /  1010.4hPa West 4.1mph /  6.6km/h 7mph /  11.3km/h 93% 0.00in /  0mm 74 W/m2
10:44 54.4 °F /  12.4 °C 52.4 °F /  11.3 °C 29.84in /  1010.4hPa West 5.5mph /  8.9km/h 9mph /  14.5km/h 93% 0.00in /  0mm 58 W/m2
10:49 54.1 °F /  12.3 °C 52.2 °F /  11.2 °C 29.85in /  1010.7hPa West 3.4mph /  5.5km/h 9mph /  14.5km/h 93% 0.00in /  0mm 53 W/m2
10:54 54.1 °F /  12.3 °C 52.2 °F /  11.2 °C 29.85in /  1010.7hPa West 4.5mph /  7.2km/h 6mph /  9.7km/h 93% 0.00in /  0mm 46 W/m2
10:59 54.1 °F /  12.3 °C 52.2 °F /  11.2 °C 29.85in /  1010.7hPa West 2.4mph /  3.9km/h 5mph /  8km/h 93% 0.00in /  0mm 58 W/m2
11:04 54.1 °F /  12.3 °C 52.2 °F /  11.2 °C 29.85in /  1010.7hPa WSW 2.7mph /  4.3km/h 5mph /  8km/h 93% 0.00in /  0mm 109 W/m2
11:09 54.1 °F /  12.3 °C 52.2 °F /  11.2 °C 29.85in /  1010.7hPa WSW 2.7mph /  4.3km/h 5mph /  8km/h 93% 0.00in /  0mm 95 W/m2
11:14 54.1 °F /  12.3 °C 52.2 °F /  11.2 °C 29.85in /  1010.7hPa West 2.6mph /  4.2km/h 6mph /  9.7km/h 93% 0.00in /  0mm 95 W/m2
11:19 54.1 °F /  12.3 °C 52.2 °F /  11.2 °C 29.85in /  1010.7hPa WSW 2.5mph /  4km/h 5mph /  8km/h 93% 0.00in /  0mm 76 W/m2
11:24 54.1 °F /  12.3 °C 52.2 °F /  11.2 °C 29.85in /  1010.7hPa WSW 3.7mph /  6km/h 7mph /  11.3km/h 93% 0.00in /  0mm 91 W/m2
11:29 54.1 °F /  12.3 °C 52.4 °F /  11.3 °C 29.85in /  1010.7hPa West 2.2mph /  3.5km/h 5mph /  8km/h 93.6% 0.01in /  0.25mm 98 W/m2
11:34 54.2 °F /  12.3 °C 52.4 °F /  11.3 °C 29.85in /  1010.7hPa WNW 1.6mph /  2.6km/h 5mph /  8km/h 93.6% 0.01in /  0.25mm 111 W/m2
11:39 54.1 °F /  12.3 °C 52.5 °F /  11.4 °C 29.85in /  1010.7hPa West 3.8mph /  6.1km/h 7mph /  11.3km/h 94% 0.01in /  0.25mm 123 W/m2
11:44 54 °F /  12.2 °C 52.3 °F /  11.3 °C 29.85in /  1010.7hPa West 3.4mph /  5.5km/h 7mph /  11.3km/h 94% 0.01in /  0.25mm 135 W/m2
11:49 54 °F /  12.2 °C 52.3 °F /  11.3 °C 29.85in /  1010.7hPa West 2.1mph /  3.4km/h 6mph /  9.7km/h 94% 0.01in /  0.25mm 151 W/m2
11:54 54 °F /  12.2 °C 52.3 °F /  11.3 °C 29.84in /  1010.4hPa West 3.2mph /  5.1km/h 6mph /  9.7km/h 94% 0.01in /  0.25mm 139 W/m2
11:59 54 °F /  12.2 °C 52.3 °F /  11.3 °C 29.84in /  1010.4hPa West 3.2mph /  5.1km/h 6mph /  9.7km/h 94% 0.01in /  0.25mm 132 W/m2
12:04 54.1 °F /  12.3 °C 52.4 °F /  11.3 °C 29.84in /  1010.4hPa WSW 1.9mph /  3.1km/h 5mph /  8km/h 94% 0.01in /  0.25mm 128 W/m2
12:09 54.1 °F /  12.3 °C 52.5 °F /  11.4 °C 29.84in /  1010.4hPa WSW 2.9mph /  4.7km/h 5mph /  8km/h 94% 0.01in /  0.25mm 116 W/m2
12:14 54.2 °F /  12.3 °C 52.6 °F /  11.4 °C 29.84in /  1010.4hPa WSW 2mph /  3.2km/h 4mph /  6.4km/h 94% 0.01in /  0.25mm 98 W/m2
12:19 54.3 °F /  12.4 °C 52.7 °F /  11.5 °C 29.84in /  1010.4hPa WSW 2.1mph /  3.4km/h 4mph /  6.4km/h 94% 0.01in /  0.25mm 90 W/m2
12:24 54.3 °F /  12.4 °C 52.6 °F /  11.4 °C 29.84in /  1010.4hPa WSW 2mph /  3.2km/h 4mph /  6.4km/h 93.8% 0.01in /  0.25mm 88 W/m2
12:29 54.3 °F /  12.4 °C 52.4 °F /  11.3 °C 29.84in /  1010.4hPa WSW 2.2mph /  3.5km/h 4mph /  6.4km/h 93.2% 0.00in /  0mm 104 W/m2
12:34 54.7 °F /  12.6 °C 52.7 °F /  11.5 °C 29.84in /  1010.4hPa WSW 2.1mph /  3.4km/h 5mph /  8km/h 93% 0.00in /  0mm 146 W/m2
12:39 54.8 °F /  12.7 °C 53.1 °F /  11.7 °C 29.84in /  1010.4hPa WSW 2.5mph /  4km/h 5mph /  8km/h 93.8% 0.00in /  0mm 153 W/m2
12:44 54.9 °F /  12.7 °C 53.3 °F /  11.8 °C 29.84in /  1010.4hPa WSW 2.1mph /  3.4km/h 4mph /  6.4km/h 94% 0.00in /  0mm 192 W/m2
12:49 55 °F /  12.8 °C 53.1 °F /  11.7 °C 29.84in /  1010.4hPa WSW 1.7mph /  2.7km/h 4mph /  6.4km/h 93.2% 0.00in /  0mm 188 W/m2
12:54 55 °F /  12.8 °C 53.1 °F /  11.7 °C 29.83in /  1010hPa West 2.5mph /  4km/h 5mph /  8km/h 93% 0.00in /  0mm 158 W/m2
12:59 55.2 °F /  12.9 °C 53.2 °F /  11.8 °C 29.83in /  1010hPa West 3.7mph /  6km/h 6mph /  9.7km/h 93% 0.00in /  0mm 139 W/m2
13:04 55.3 °F /  12.9 °C 53.3 °F /  11.8 °C 29.83in /  1010hPa West 2.8mph /  4.5km/h 6mph /  9.7km/h 93% 0.00in /  0mm 155 W/m2
13:09 55.5 °F /  13.1 °C 53.5 °F /  11.9 °C 29.83in /  1010hPa West 2.6mph /  4.2km/h 6mph /  9.7km/h 93% 0.00in /  0mm 149 W/m2
13:14 55.6 °F /  13.1 °C 53.6 °F /  12 °C 29.83in /  1010hPa West 2.8mph /  4.5km/h 6mph /  9.7km/h 93% 0.00in /  0mm 165 W/m2
13:19 55.6 °F /  13.1 °C 53.6 °F /  12 °C 29.83in /  1010hPa WSW 3.2mph /  5.1km/h 6mph /  9.7km/h 93% 0.00in /  0mm 174 W/m2
13:24 55.8 °F /  13.2 °C 53.9 °F /  12.2 °C 29.83in /  1010hPa SW 2.4mph /  3.9km/h 4mph /  6.4km/h 93% 0.00in /  0mm 183 W/m2
13:29 56 °F /  13.3 °C 54.1 °F /  12.3 °C 29.83in /  1010hPa WSW 2mph /  3.2km/h 5mph /  8km/h 93% 0.00in /  0mm 178 W/m2
13:34 56.1 °F /  13.4 °C 53.9 °F /  12.2 °C 29.83in /  1010hPa West 3.3mph /  5.3km/h 5mph /  8km/h 92.2% 0.00in /  0mm 227 W/m2
13:39 56.3 °F /  13.5 °C 54 °F /  12.2 °C 29.82in /  1009.7hPa WSW 3.6mph /  5.8km/h 7mph /  11.3km/h 92% 0.00in /  0mm 288 W/m2
13:43 56.6 °F /  13.7 °C 54.3 °F /  12.4 °C 29.82in /  1009.7hPa SW 1.7mph /  2.7km/h 5mph /  8km/h 92% 0.00in /  0mm 325 W/m2
13:49 57 °F /  13.9 °C 54.6 °F /  12.6 °C 29.82in /  1009.7hPa SW 2.6mph /  4.2km/h 5mph /  8km/h 91.8% 0.00in /  0mm 318 W/m2
13:54 57.3 °F /  14.1 °C 54.8 °F /  12.7 °C 29.81in /  1009.4hPa West 3.7mph /  6km/h 7mph /  11.3km/h 91% 0.00in /  0mm 316 W/m2
13:59 57.6 °F /  14.2 °C 55 °F /  12.8 °C 29.81in /  1009.4hPa West 3.3mph /  5.3km/h 6mph /  9.7km/h 91% 0.00in /  0mm 253 W/m2
14:04 58.2 °F /  14.6 °C 55.3 °F /  12.9 °C 29.81in /  1009.4hPa SW 3.7mph /  6km/h 7mph /  11.3km/h 90% 0.00in /  0mm 294 W/m2
14:09 58.5 °F /  14.7 °C 55.1 °F /  12.8 °C 29.81in /  1009.4hPa WSW 4.9mph /  7.9km/h 9mph /  14.5km/h 88.6% 0.00in /  0mm 327 W/m2
14:14 58.6 °F /  14.8 °C 54.9 °F /  12.7 °C 29.80in /  1009hPa WSW 3.9mph /  6.3km/h 9mph /  14.5km/h 87.6% 0.00in /  0mm 327 W/m2
14:19 58.7 °F /  14.8 °C 54.8 °F /  12.7 °C 29.80in /  1009hPa WSW 2.8mph /  4.5km/h 6mph /  9.7km/h 86.4% 0.00in /  0mm 401 W/m2
14:24 59.1 °F /  15.1 °C 54.8 °F /  12.7 °C 29.80in /  1009hPa WSW 2.8mph /  4.5km/h 7mph /  11.3km/h 85.6% 0.00in /  0mm 285 W/m2
14:29 59.5 °F /  15.3 °C 55 °F /  12.8 °C 29.80in /  1009hPa West 1.6mph /  2.6km/h 4mph /  6.4km/h 85% 0.00in /  0mm 204 W/m2
14:34 59.8 °F /  15.4 °C 55.1 °F /  12.8 °C 29.80in /  1009hPa WSW 3.1mph /  5km/h 6mph /  9.7km/h 84.4% 0.00in /  0mm 330 W/m2
14:39 60.2 °F /  15.7 °C 55 °F /  12.8 °C 29.80in /  1009hPa West 3.3mph /  5.3km/h 7mph /  11.3km/h 83.2% 0.00in /  0mm 601 W/m2
14:44 60 °F /  15.6 °C 54.3 °F /  12.4 °C 29.80in /  1009hPa WSW 5.3mph /  8.5km/h 9mph /  14.5km/h 81.6% 0.00in /  0mm 151 W/m2
14:49 59.7 °F /  15.4 °C 54 °F /  12.2 °C 29.80in /  1009hPa West 3.5mph /  5.6km/h 8mph /  12.9km/h 81% 0.00in /  0mm 471 W/m2
14:54 60.1 °F /  15.6 °C 54.3 °F /  12.4 °C 29.80in /  1009hPa West 4.8mph /  7.7km/h 9mph /  14.5km/h 81% 0.00in /  0mm 422 W/m2
14:59 60.1 °F /  15.6 °C 54.2 °F /  12.3 °C 29.80in /  1009hPa WSW 5.6mph /  9km/h 10mph /  16.1km/h 80.6% 0.00in /  0mm 436 W/m2
15:04 60.2 °F /  15.7 °C 53.8 °F /  12.1 °C 29.80in /  1009hPa WSW 8mph /  12.9km/h 12mph /  19.3km/h 79.4% 0.00in /  0mm 473 W/m2
15:09 59.7 °F /  15.4 °C 53.3 °F /  11.8 °C 29.80in /  1009hPa WSW 5.3mph /  8.5km/h 11mph /  17.7km/h 79.2% 0.00in /  0mm 243 W/m2
15:14 59.5 °F /  15.3 °C 53.2 °F /  11.8 °C 29.80in /  1009hPa West 3.9mph /  6.3km/h 9mph /  14.5km/h 79.2% 0.00in /  0mm 171 W/m2
15:19 59.4 °F /  15.2 °C 53.1 °F /  11.7 °C 29.80in /  1009hPa WSW 5.2mph /  8.4km/h 10mph /  16.1km/h 79.4% 0.00in /  0mm 179 W/m2
15:24 59.4 °F /  15.2 °C 52.9 °F /  11.6 °C 29.80in /  1009hPa WSW 3mph /  4.8km/h 10mph /  16.1km/h 79% 0.00in /  0mm 151 W/m2
15:29 59.4 °F /  15.2 °C 53.2 °F /  11.8 °C 29.79in /  1008.7hPa WSW 3.3mph /  5.3km/h 6mph /  9.7km/h 80% 0.00in /  0mm 195 W/m2
15:34 59.4 °F /  15.2 °C 53.2 °F /  11.8 °C 29.79in /  1008.7hPa West 3.7mph /  6km/h 8mph /  12.9km/h 80% 0.00in /  0mm 139 W/m2
15:39 59.2 °F /  15.1 °C 53.1 °F /  11.7 °C 29.79in /  1008.7hPa West 3.4mph /  5.5km/h 8mph /  12.9km/h 80% 0.00in /  0mm 74 W/m2
15:44 58.9 °F /  14.9 °C 52.8 °F /  11.6 °C 29.79in /  1008.7hPa WSW 5.9mph /  9.5km/h 8mph /  12.9km/h 80% 0.00in /  0mm 47 W/m2
15:49 58.6 °F /  14.8 °C 52.7 °F /  11.5 °C 29.79in /  1008.7hPa West 5.7mph /  9.2km/h 10mph /  16.1km/h 80.5% 0.00in /  0mm 70 W/m2
15:54 58.6 °F /  14.8 °C 52.9 °F /  11.6 °C 29.79in /  1008.7hPa West 4.5mph /  7.2km/h 10mph /  16.1km/h 81% 0.00in /  0mm 95 W/m2
15:59 58.6 °F /  14.8 °C 52.9 °F /  11.6 °C 29.79in /  1008.7hPa West 3.6mph /  5.8km/h 8mph /  12.9km/h 81.2% 0.00in /  0mm 114 W/m2
16:04 58.6 °F /  14.8 °C 53.2 °F /  11.8 °C 29.79in /  1008.7hPa West 3.9mph /  6.3km/h 6mph /  9.7km/h 82% 0.00in /  0mm 139 W/m2
16:09 58.6 °F /  14.8 °C 53.2 °F /  11.8 °C 29.78in /  1008.4hPa West 2.5mph /  4km/h 6mph /  9.7km/h 82% 0.00in /  0mm 130 W/m2
16:14 58.8 °F /  14.9 °C 53.4 °F /  11.9 °C 29.79in /  1008.7hPa WSW 2.4mph /  3.9km/h 8mph /  12.9km/h 82% 0.00in /  0mm 111 W/m2
16:19 58.8 °F /  14.9 °C 53.2 °F /  11.8 °C 29.78in /  1008.4hPa SW 5.3mph /  8.5km/h 9mph /  14.5km/h 81.2% 0.00in /  0mm 105 W/m2
16:24 59 °F /  15 °C 53.2 °F /  11.8 °C 29.78in /  1008.4hPa WSW 3mph /  4.8km/h 6mph /  9.7km/h 81% 0.00in /  0mm 120 W/m2
16:29 59.2 °F /  15.1 °C 53.4 °F /  11.9 °C 29.78in /  1008.4hPa West 3.3mph /  5.3km/h 7mph /  11.3km/h 81% 0.00in /  0mm 113 W/m2
16:34 59 °F /  15 °C 53.2 °F /  11.8 °C 29.78in /  1008.4hPa West 3.6mph /  5.8km/h 7mph /  11.3km/h 81% 0.00in /  0mm 141 W/m2
16:39 59 °F /  15 °C 53.2 °F /  11.8 °C 29.78in /  1008.4hPa West 4.1mph /  6.6km/h 9mph /  14.5km/h 81% 0.00in /  0mm 132 W/m2
16:44 58.9 °F /  14.9 °C 53.2 °F /  11.8 °C 29.78in /  1008.4hPa West 3.3mph /  5.3km/h 7mph /  11.3km/h 81% 0.00in /  0mm 104 W/m2
16:49 59 °F /  15 °C 53.2 °F /  11.8 °C 29.78in /  1008.4hPa West 3.1mph /  5km/h 5mph /  8km/h 81% 0.00in /  0mm 111 W/m2
16:54 59 °F /  15 °C 53.2 °F /  11.8 °C 29.78in /  1008.4hPa WSW 4.8mph /  7.7km/h 8mph /  12.9km/h 81% 0.00in /  0mm 123 W/m2
16:59 58.9 °F /  14.9 °C 53.1 °F /  11.7 °C 29.78in /  1008.4hPa WSW 4.8mph /  7.7km/h 8mph /  12.9km/h 81% 0.00in /  0mm 148 W/m2
17:04 59.1 °F /  15.1 °C 53.3 °F /  11.8 °C 29.78in /  1008.4hPa WSW 4.9mph /  7.9km/h 8mph /  12.9km/h 81% 0.00in /  0mm 142 W/m2
17:09 59.2 °F /  15.1 °C 53.3 °F /  11.8 °C 29.78in /  1008.4hPa West 4.2mph /  6.8km/h 9mph /  14.5km/h 80.8% 0.00in /  0mm 128 W/m2
17:14 59 °F /  15 °C 52.9 °F /  11.6 °C 29.78in /  1008.4hPa West 4.6mph /  7.4km/h 9mph /  14.5km/h 80% 0.00in /  0mm 77 W/m2
17:19 58.6 °F /  14.8 °C 52.9 °F /  11.6 °C 29.78in /  1008.4hPa West 3.6mph /  5.8km/h 9mph /  14.5km/h 81% 0.00in /  0mm 54 W/m2
17:24 58.5 °F /  14.7 °C 52.7 °F /  11.5 °C 29.78in /  1008.4hPa WSW 4mph /  6.4km/h 7mph /  11.3km/h 81% 0.00in /  0mm 40 W/m2
17:29 58.3 °F /  14.6 °C 52.8 °F /  11.6 °C 29.78in /  1008.4hPa West 2.6mph /  4.2km/h 6mph /  9.7km/h 81.8% 0.00in /  0mm 44 W/m2
17:34 58.3 °F /  14.6 °C 52.9 °F /  11.6 °C 29.78in /  1008.4hPa WSW 3.6mph /  5.8km/h 7mph /  11.3km/h 82% 0.00in /  0mm 40 W/m2
17:39 58.3 °F /  14.6 °C 52.9 °F /  11.6 °C 29.77in /  1008hPa WSW 3.4mph /  5.5km/h 5mph /  8km/h 82% 0.00in /  0mm 37 W/m2
17:44 58 °F /  14.4 °C 52.8 °F /  11.6 °C 29.78in /  1008.4hPa West 2.5mph /  4km/h 5mph /  8km/h 82.8% 0.00in /  0mm 35 W/m2
17:49 57.9 °F /  14.4 °C 52.7 °F /  11.5 °C 29.77in /  1008hPa WSW 2.2mph /  3.5km/h 6mph /  9.7km/h 83% 0.00in /  0mm 32 W/m2
17:54 57.7 °F /  14.3 °C 52.7 °F /  11.5 °C 29.77in /  1008hPa West 2.4mph /  3.9km/h 6mph /  9.7km/h 83% 0.00in /  0mm 26 W/m2
17:59 57.7 °F /  14.3 °C 52.7 °F /  11.5 °C 29.77in /  1008hPa SW 2.4mph /  3.9km/h 7mph /  11.3km/h 83.6% 0.00in /  0mm 23 W/m2
18:04 57.6 °F /  14.2 °C 52.7 °F /  11.5 °C 29.77in /  1008hPa WSW 2mph /  3.2km/h 4mph /  6.4km/h 84% 0.00in /  0mm 19 W/m2
18:09 57.4 °F /  14.1 °C 52.5 °F /  11.4 °C 29.77in /  1008hPa WSW 1.9mph /  3.1km/h 6mph /  9.7km/h 84% 0.00in /  0mm 16 W/m2
18:14 57 °F /  13.9 °C 52.2 °F /  11.2 °C 29.77in /  1008hPa WSW 1.9mph /  3.1km/h 6mph /  9.7km/h 84% 0.00in /  0mm 12 W/m2
18:19 56.9 °F /  13.8 °C 52.1 °F /  11.2 °C 29.77in /  1008hPa WSW 2.2mph /  3.5km/h 5mph /  8km/h 84.2% 0.00in /  0mm 9 W/m2
18:24 56.7 °F /  13.7 °C 52.2 °F /  11.2 °C 29.77in /  1008hPa WSW 2.5mph /  4km/h 5mph /  8km/h 85% 0.00in /  0mm 7 W/m2
18:29 56.6 °F /  13.7 °C 52.1 °F /  11.2 °C 29.78in /  1008.4hPa WSW 2.5mph /  4km/h 5mph /  8km/h 85% 0.00in /  0mm 7 W/m2
18:34 56.3 °F /  13.5 °C 51.8 °F /  11 °C 29.78in /  1008.4hPa WSW 1.3mph /  2.1km/h 4mph /  6.4km/h 85% 0.00in /  0mm 5 W/m2
18:39 56.1 °F /  13.4 °C 51.6 °F /  10.9 °C 29.78in /  1008.4hPa WSW 1.5mph /  2.4km/h 3mph /  4.8km/h 85.2% 0.00in /  0mm 0 W/m2
18:44 55.9 °F /  13.3 °C 51.8 °F /  11 °C 29.78in /  1008.4hPa WSW 1.3mph /  2.1km/h 4mph /  6.4km/h 86% 0.00in /  0mm 0 W/m2
18:49 55.8 °F /  13.2 °C 51.6 °F /  10.9 °C 29.78in /  1008.4hPa WSW 1.4mph /  2.3km/h 4mph /  6.4km/h 86% 0.00in /  0mm 0 W/m2
18:54 55.6 °F /  13.1 °C 51.4 °F /  10.8 °C 29.78in /  1008.4hPa WSW 0.7mph /  1.1km/h 2mph /  3.2km/h 86% 0.00in /  0mm 0 W/m2
18:59 55.4 °F /  13 °C 51.3 °F /  10.7 °C 29.78in /  1008.4hPa WSW 0.9mph /  1.4km/h 2mph /  3.2km/h 86.2% 0.00in /  0mm 0 W/m2
19:04 55.2 °F /  12.9 °C 51.4 °F /  10.8 °C 29.78in /  1008.4hPa WSW 0.2mph /  0.3km/h 2mph /  3.2km/h 87% 0.00in /  0mm 0 W/m2
19:09 55 °F /  12.8 °C 51.3 °F /  10.7 °C 29.78in /  1008.4hPa Calm   1mph /  1.6km/h 87% 0.00in /  0mm 0 W/m2
19:14 55 °F /  12.8 °C 51.3 °F /  10.7 °C 29.78in /  1008.4hPa Calm   1mph /  1.6km/h 87% 0.00in /  0mm 0 W/m2
19:19 55 °F /  12.8 °C 51.2 °F /  10.7 °C 29.78in /  1008.4hPa Calm     87% 0.00in /  0mm 0 W/m2
19:24 54.7 °F /  12.6 °C 51 °F /  10.6 °C 29.78in /  1008.4hPa Calm     87.2% 0.00in /  0mm 0 W/m2
19:29 54.7 °F /  12.6 °C 51.3 °F /  10.7 °C 29.78in /  1008.4hPa Calm     88% 0.00in /  0mm 0 W/m2
19:34 54.7 °F /  12.6 °C 51.3 °F /  10.7 °C 29.78in /  1008.4hPa Calm     88% 0.00in /  0mm 0 W/m2
19:39 54.5 °F /  12.5 °C 51.1 °F /  10.6 °C 29.78in /  1008.4hPa Calm     88% 0.00in /  0mm 0 W/m2
19:44 54.1 °F /  12.3 °C 50.6 °F /  10.3 °C 29.78in /  1008.4hPa Calm     88% 0.00in /  0mm 0 W/m2
19:49 53.9 °F /  12.2 °C 50.4 °F /  10.2 °C 29.77in /  1008hPa Calm     88% 0.00in /  0mm 0 W/m2
19:54 53.6 °F /  12 °C 50.2 °F /  10.1 °C 29.77in /  1008hPa Calm     88% 0.00in /  0mm 0 W/m2
19:59 53.2 °F /  11.8 °C 49.8 °F /  9.9 °C 29.77in /  1008hPa Calm     88% 0.00in /  0mm 0 W/m2
20:04 53.1 °F /  11.7 °C 49.8 °F /  9.9 °C 29.77in /  1008hPa WSW 0.4mph /  0.6km/h 2mph /  3.2km/h 88.4% 0.00in /  0mm 0 W/m2
20:09 52.9 °F /  11.6 °C 49.6 °F /  9.8 °C 29.77in /  1008hPa WSW 1.3mph /  2.1km/h 2mph /  3.2km/h 89% 0.00in /  0mm 0 W/m2
20:14 52.5 °F /  11.4 °C 49.5 °F /  9.7 °C 29.78in /  1008.4hPa WSW 2.4mph /  3.9km/h 3mph /  4.8km/h 89% 0.00in /  0mm 0 W/m2
20:19 52.4 °F /  11.3 °C 49.3 °F /  9.6 °C 29.78in /  1008.4hPa WSW 0.4mph /  0.6km/h 3mph /  4.8km/h 89% 0.00in /  0mm 0 W/m2
20:24 52 °F /  11.1 °C 48.9 °F /  9.4 °C 29.78in /  1008.4hPa Calm     89% 0.00in /  0mm 0 W/m2
20:29 52 °F /  11.1 °C 49 °F /  9.4 °C 29.77in /  1008hPa Calm     89.5% 0.00in /  0mm 0 W/m2
20:34 52.2 °F /  11.2 °C 49.3 °F /  9.6 °C 29.77in /  1008hPa Calm     90% 0.00in /  0mm 0 W/m2
20:39 52.2 °F /  11.2 °C 49.3 °F /  9.6 °C 29.77in /  1008hPa Calm     90% 0.00in /  0mm 0 W/m2
20:44 51.6 °F /  10.9 °C 48.7 °F /  9.3 °C 29.77in /  1008hPa Calm     90% 0.00in /  0mm 0 W/m2
20:49 51.3 °F /  10.7 °C 48.4 °F /  9.1 °C 29.77in /  1008hPa Calm     90% 0.00in /  0mm 0 W/m2
20:54 51.3 °F /  10.7 °C 48.4 °F /  9.1 °C 29.77in /  1008hPa Calm     90% 0.00in /  0mm 0 W/m2
20:59 51.1 °F /  10.6 °C 48.2 °F /  9 °C 29.76in /  1007.7hPa Calm     90% 0.00in /  0mm 0 W/m2
21:04 51.1 °F /  10.6 °C 48.2 °F /  9 °C 29.76in /  1007.7hPa Calm     90% 0.00in /  0mm 0 W/m2
21:09 51.1 °F /  10.6 °C 48.3 °F /  9.1 °C 29.76in /  1007.7hPa Calm     90.2% 0.00in /  0mm 0 W/m2
21:14 51 °F /  10.6 °C 48.5 °F /  9.2 °C 29.76in /  1007.7hPa Calm     91% 0.00in /  0mm 0 W/m2
21:19 50.7 °F /  10.4 °C 48 °F /  8.9 °C 29.76in /  1007.7hPa Calm     90.4% 0.00in /  0mm 0 W/m2
21:24 50.4 °F /  10.2 °C 47.8 °F /  8.8 °C 29.76in /  1007.7hPa Calm     90.8% 0.00in /  0mm 0 W/m2
21:29 50.3 °F /  10.2 °C 47.7 °F /  8.7 °C 29.76in /  1007.7hPa Calm     91% 0.00in /  0mm 0 W/m2
21:34 50.2 °F /  10.1 °C 47.7 °F /  8.7 °C 29.76in /  1007.7hPa Calm     91% 0.00in /  0mm 0 W/m2
21:39 50 °F /  10 °C 47.5 °F /  8.6 °C 29.76in /  1007.7hPa Calm     91% 0.00in /  0mm 0 W/m2
21:44 49.8 °F /  9.9 °C 47.3 °F /  8.5 °C 29.76in /  1007.7hPa Calm     91% 0.00in /  0mm 0 W/m2
21:49 49.8 °F /  9.9 °C 47.3 °F /  8.5 °C 29.75in /  1007.3hPa Calm     91% 0.00in /  0mm 0 W/m2
21:54 49.6 °F /  9.8 °C 47.1 °F /  8.4 °C 29.76in /  1007.7hPa Calm     91% 0.00in /  0mm 0 W/m2
21:59 49.6 °F /  9.8 °C 47.1 °F /  8.4 °C 29.75in /  1007.3hPa Calm     91% 0.00in /  0mm 0 W/m2
22:04 49.6 °F /  9.8 °C 47.1 °F /  8.4 °C 29.75in /  1007.3hPa Calm     91% 0.00in /  0mm 0 W/m2
22:09 49.5 °F /  9.7 °C 46.9 °F /  8.3 °C 29.75in /  1007.3hPa Calm     91% 0.00in /  0mm 0 W/m2
22:14 49.5 °F /  9.7 °C 46.9 °F /  8.3 °C 29.75in /  1007.3hPa Calm     91% 0.00in /  0mm 0 W/m2
22:19 49.3 °F /  9.6 °C 46.9 °F /  8.3 °C 29.75in /  1007.3hPa Calm     91.2% 0.00in /  0mm 0 W/m2
22:24 49.3 °F /  9.6 °C 47.1 °F /  8.4 °C 29.75in /  1007.3hPa Calm     92% 0.00in /  0mm 0 W/m2
22:29 49.3 °F /  9.6 °C 47.1 °F /  8.4 °C 29.75in /  1007.3hPa WSW 1mph /  1.6km/h 3mph /  4.8km/h 92% 0.00in /  0mm 0 W/m2
22:34 49.2 °F /  9.6 °C 47 °F /  8.3 °C 29.75in /  1007.3hPa Calm   2mph /  3.2km/h 92% 0.00in /  0mm 0 W/m2
22:39 49.1 °F /  9.5 °C 46.9 °F /  8.3 °C 29.75in /  1007.3hPa WSW 1mph /  1.6km/h 4mph /  6.4km/h 92% 0.00in /  0mm 0 W/m2
22:44 49.1 °F /  9.5 °C 46.9 °F /  8.3 °C 29.75in /  1007.3hPa WSW 0.4mph /  0.6km/h 2mph /  3.2km/h 92% 0.00in /  0mm 0 W/m2
22:49 49.3 °F /  9.6 °C 47.1 °F /  8.4 °C 29.75in /  1007.3hPa Calm     92% 0.00in /  0mm 0 W/m2
22:54 49.2 °F /  9.6 °C 47 °F /  8.3 °C 29.74in /  1007hPa Calm     92% 0.00in /  0mm 0 W/m2
22:59 49.3 °F /  9.6 °C 47.1 °F /  8.4 °C 29.74in /  1007hPa WSW 0.6mph /  1km/h 3mph /  4.8km/h 92% 0.00in /  0mm 0 W/m2
23:04 49.5 °F /  9.7 °C 47.3 °F /  8.5 °C 29.74in /  1007hPa WSW 2.2mph /  3.5km/h 3mph /  4.8km/h 92% 0.00in /  0mm 0 W/m2
23:09 49.6 °F /  9.8 °C 47.5 °F /  8.6 °C 29.74in /  1007hPa WSW 1.6mph /  2.6km/h 3mph /  4.8km/h 92% 0.00in /  0mm 0 W/m2
23:14 49.5 °F /  9.7 °C 47.4 °F /  8.6 °C 29.74in /  1007hPa WSW 2.5mph /  4km/h 3mph /  4.8km/h 92% 0.00in /  0mm 0 W/m2
23:19 49.5 °F /  9.7 °C 47.5 °F /  8.6 °C 29.74in /  1007hPa WSW 2.4mph /  3.9km/h 4mph /  6.4km/h 92.8% 0.00in /  0mm 0 W/m2
23:24 49.5 °F /  9.7 °C 47.6 °F /  8.7 °C 29.73in /  1006.7hPa West 2.9mph /  4.7km/h 4mph /  6.4km/h 93% 0.00in /  0mm 0 W/m2
23:29 49.6 °F /  9.8 °C 47.7 °F /  8.7 °C 29.73in /  1006.7hPa WNW 1.7mph /  2.7km/h 4mph /  6.4km/h 93% 0.00in /  0mm 0 W/m2
23:34 49.5 °F /  9.7 °C 47.5 °F /  8.6 °C 29.73in /  1006.7hPa WNW 0.4mph /  0.6km/h 2mph /  3.2km/h 93% 0.00in /  0mm 0 W/m2
23:39 49.3 °F /  9.6 °C 47.3 °F /  8.5 °C 29.73in /  1006.7hPa WNW 0.8mph /  1.3km/h 3mph /  4.8km/h 93% 0.00in /  0mm 0 W/m2
23:44 49.1 °F /  9.5 °C 47.1 °F /  8.4 °C 29.72in /  1006.3hPa WNW 1.7mph /  2.7km/h 3mph /  4.8km/h 93% 0.00in /  0mm 0 W/m2
23:49 48.9 °F /  9.4 °C 46.9 °F /  8.3 °C 29.72in /  1006.3hPa WNW 1.7mph /  2.7km/h 3mph /  4.8km/h 93% 0.00in /  0mm 0 W/m2
23:54 48.9 °F /  9.4 °C 46.9 °F /  8.3 °C 29.72in /  1006.3hPa WNW 0.6mph /  1km/h 3mph /  4.8km/h 93% 0.00in /  0mm 0 W/m2
23:59 48.9 °F /  9.4 °C 46.9 °F /  8.3 °C 29.72in /  1006.3hPa West 0.6mph /  1km/h 4mph /  6.4km/h 93% 0.00in /  0mm 0 W/m2
Bath Spa Weather
Compliments of Weather Underground - 2 mb